Terminal Aerodrome Forecast
Issued by NWS

Home | Current Version | Previous Version | Text Only | Print | Product List | Glossary On
Versions: 1 2 3 4 5 6 7 8 9 10 11 12 13 14
000
FTUS42 KGSP 201608 AAA
TAFGMU
TAF AMD
KGMU 201608Z 2016/2112 04008KT 4SM -DZ BR OVC019
     FM201800 05005KT 5SM BR OVC022
     FM202100 04005KT P6SM OVC040
     FM210300 04003KT 5SM BR BKN030
     FM210900 00000KT 1/2SM FG BKN015=

USA.gov is the U.S. government's official web portal to all federal, state and local government web resources and services.